createdAt,value
2016-12-16T00:00:50.753Z,15.65
2016-12-16T00:02:01.437Z,15.56
2016-12-16T00:03:12.196Z,15.62
2016-12-16T00:04:22.908Z,15.64
2016-12-16T00:05:33.649Z,15.65
2016-12-16T00:06:44.354Z,15.67
2016-12-16T00:07:55.033Z,15.67
2016-12-16T00:09:05.740Z,15.65
2016-12-16T00:10:16.419Z,15.64
2016-12-16T00:11:27.619Z,15.64
2016-12-16T00:12:38.286Z,15.71
2016-12-16T00:13:48.986Z,15.75
2016-12-16T00:14:59.673Z,15.76
2016-12-16T00:16:10.365Z,15.75
2016-12-16T00:17:21.058Z,15.78
2016-12-16T00:18:31.745Z,15.76
2016-12-16T00:19:42.437Z,15.78
2016-12-16T00:20:53.100Z,15.75
2016-12-16T00:22:03.780Z,15.71
2016-12-16T00:23:14.492Z,15.75
2016-12-16T00:24:25.178Z,15.71
2016-12-16T00:25:35.897Z,15.69
2016-12-16T00:26:46.583Z,15.69
2016-12-16T00:27:57.257Z,15.68
2016-12-16T00:29:07.951Z,15.74
2016-12-16T00:30:18.637Z,15.69
2016-12-16T00:31:29.354Z,15.64
2016-12-16T00:32:40.015Z,15.64
2016-12-16T00:33:50.701Z,15.59
2016-12-16T00:35:01.407Z,15.6
2016-12-16T00:36:12.088Z,15.69
2016-12-16T00:37:22.757Z,15.65
2016-12-16T00:38:33.450Z,15.54
2016-12-16T00:39:44.115Z,15.6
2016-12-16T00:40:54.817Z,15.56
2016-12-16T00:42:06.038Z,15.5
2016-12-16T00:43:16.742Z,15.5
2016-12-16T00:44:27.430Z,15.59
2016-12-16T00:45:38.111Z,15.49
2016-12-16T00:46:49.334Z,15.46
2016-12-16T00:48:00.040Z,15.54
2016-12-16T00:49:10.736Z,15.57
2016-12-16T00:50:21.433Z,15.47
2016-12-16T00:51:32.136Z,15.49
2016-12-16T00:52:42.858Z,15.46
2016-12-16T00:53:53.542Z,15.41
2016-12-16T00:55:04.232Z,15.44
2016-12-16T00:56:14.910Z,15.44
2016-12-16T00:57:25.587Z,15.36
2016-12-16T00:58:36.283Z,15.38
2016-12-16T00:59:46.995Z,15.43
2016-12-16T01:00:57.704Z,15.41
2016-12-16T01:02:08.406Z,15.46
2016-12-16T01:03:19.604Z,15.43
2016-12-16T01:04:30.796Z,15.35
2016-12-16T01:05:41.485Z,15.41
2016-12-16T01:06:52.202Z,15.34
2016-12-16T01:08:03.608Z,15.32
2016-12-16T01:09:14.298Z,15.35
2016-12-16T01:10:24.980Z,15.35
2016-12-16T01:11:35.660Z,15.35
2016-12-16T01:12:46.331Z,15.38
2016-12-16T01:13:57.540Z,15.39
2016-12-16T01:15:08.242Z,15.28
2016-12-16T01:16:18.950Z,15.34
2016-12-16T01:17:29.642Z,15.29
2016-12-16T01:18:40.336Z,15.29
2016-12-16T01:19:51.045Z,15.35
2016-12-16T01:21:01.754Z,15.32
2016-12-16T01:22:12.454Z,15.29
2016-12-16T01:23:23.152Z,15.31
2016-12-16T01:24:34.377Z,15.27
2016-12-16T01:25:45.049Z,15.32
2016-12-16T01:26:55.747Z,15.29
2016-12-16T01:28:06.446Z,15.21
2016-12-16T01:29:17.146Z,15.23
2016-12-16T01:30:27.845Z,15.17
2016-12-16T01:31:38.527Z,15.2
2016-12-16T01:32:49.218Z,15.21
2016-12-16T01:33:59.942Z,15.23
2016-12-16T01:35:10.630Z,15.13
2016-12-16T01:36:21.327Z,15.13
2016-12-16T01:37:32.022Z,15.19
2016-12-16T01:38:42.696Z,15.23
2016-12-16T01:39:53.367Z,15.19
2016-12-16T01:41:04.047Z,15.17
2016-12-16T01:42:14.707Z,15.2
2016-12-16T01:43:25.403Z,15.1
2016-12-16T01:44:36.087Z,15.09
2016-12-16T01:45:46.766Z,14.99
2016-12-16T01:46:57.450Z,14.99
2016-12-16T01:48:08.151Z,15.07
2016-12-16T01:49:18.848Z,15.03
2016-12-16T01:50:29.548Z,14.99
2016-12-16T01:51:40.233Z,15.06
2016-12-16T01:52:50.898Z,15.01
2016-12-16T01:54:01.586Z,14.99
2016-12-16T01:55:12.258Z,15.02
2016-12-16T01:56:22.948Z,15.03
2016-12-16T01:57:33.622Z,15.01
2016-12-16T01:58:44.307Z,15.14
2016-12-16T01:59:55.014Z,15.11
2016-12-16T02:01:05.720Z,15.16
2016-12-16T02:02:16.438Z,15.1
2016-12-16T02:03:27.117Z,15.13
2016-12-16T02:04:37.803Z,15.19
2016-12-16T02:05:48.487Z,15.31
2016-12-16T02:06:59.181Z,15.39
2016-12-16T02:08:09.885Z,15.35
2016-12-16T02:09:20.579Z,15.35
2016-12-16T02:10:31.787Z,15.32
2016-12-16T02:11:42.478Z,15.32
2016-12-16T02:12:53.181Z,15.28
2016-12-16T02:14:03.872Z,15.29
2016-12-16T02:15:14.551Z,15.39
2016-12-16T02:16:25.228Z,15.36
2016-12-16T02:17:35.922Z,15.43
2016-12-16T02:18:46.623Z,15.44
2016-12-16T02:19:57.318Z,15.38
2016-12-16T02:21:08.014Z,15.46
2016-12-16T02:22:18.712Z,15.36
2016-12-16T02:23:29.397Z,15.35
2016-12-16T02:24:40.085Z,15.32
2016-12-16T02:25:50.774Z,15.35
2016-12-16T02:27:01.514Z,15.38
2016-12-16T02:28:12.202Z,15.31
2016-12-16T02:29:22.893Z,15.32
2016-12-16T02:30:33.587Z,15.36
2016-12-16T02:31:44.272Z,15.31
2016-12-16T02:32:54.936Z,15.35
2016-12-16T02:34:05.757Z,15.31
2016-12-16T02:35:16.453Z,15.27
2016-12-16T02:36:27.132Z,15.35
2016-12-16T02:37:37.831Z,15.41
2016-12-16T02:38:48.525Z,15.36
2016-12-16T02:39:59.206Z,15.41
2016-12-16T02:41:09.884Z,15.5
2016-12-16T02:42:20.562Z,15.54
2016-12-16T02:43:31.258Z,15.5
2016-12-16T02:44:41.992Z,15.54
2016-12-16T02:45:52.684Z,15.51
2016-12-16T02:47:03.884Z,15.57
2016-12-16T02:48:14.563Z,15.57
2016-12-16T02:49:25.260Z,15.59
2016-12-16T02:50:35.965Z,15.65
2016-12-16T02:51:47.379Z,15.5
2016-12-16T02:52:58.088Z,15.59
2016-12-16T02:54:08.773Z,15.65
2016-12-16T02:55:20.213Z,15.6
2016-12-16T02:56:30.948Z,15.62
2016-12-16T02:57:41.654Z,15.67
2016-12-16T02:58:52.357Z,15.6
2016-12-16T03:00:03.071Z,15.57
2016-12-16T03:01:13.757Z,15.67
2016-12-16T03:02:24.496Z,15.67
2016-12-16T03:03:35.213Z,15.59
2016-12-16T03:04:45.921Z,15.62
2016-12-16T03:05:56.642Z,15.69
2016-12-16T03:07:07.336Z,15.65
2016-12-16T03:08:18.042Z,15.64
2016-12-16T03:09:28.723Z,15.64
2016-12-16T03:10:39.407Z,15.68
2016-12-16T03:11:50.070Z,15.74
2016-12-16T03:13:00.756Z,15.68
2016-12-16T03:14:11.459Z,15.75
2016-12-16T03:15:22.158Z,15.69
2016-12-16T03:16:32.856Z,15.72
2016-12-16T03:17:43.544Z,15.75
2016-12-16T03:18:54.225Z,15.71
2016-12-16T03:20:04.898Z,15.72
2016-12-16T03:21:15.700Z,15.74
2016-12-16T03:22:26.386Z,15.75
2016-12-16T03:23:37.075Z,15.69
2016-12-16T03:24:47.764Z,15.71
2016-12-16T03:25:58.462Z,15.65
2016-12-16T03:27:09.174Z,15.68
2016-12-16T03:28:19.867Z,15.64
2016-12-16T03:29:30.538Z,15.62
2016-12-16T03:30:41.295Z,15.67
2016-12-16T03:31:52.001Z,15.68
2016-12-16T03:33:02.696Z,15.64
2016-12-16T03:34:13.400Z,15.65
2016-12-16T03:35:24.112Z,15.68
2016-12-16T03:36:34.797Z,15.64
2016-12-16T03:37:45.552Z,15.69
2016-12-16T03:38:56.222Z,15.64
2016-12-16T03:40:06.878Z,15.67
2016-12-16T03:41:17.552Z,15.62
2016-12-16T03:42:28.248Z,15.68
2016-12-16T03:43:38.958Z,15.65
2016-12-16T03:44:49.641Z,15.69
2016-12-16T03:46:00.301Z,15.64
2016-12-16T03:47:10.991Z,15.65
2016-12-16T03:48:21.677Z,15.72
2016-12-16T03:49:32.380Z,15.72
2016-12-16T03:50:43.075Z,15.74
2016-12-16T03:51:53.788Z,15.74
2016-12-16T03:53:04.483Z,15.71
2016-12-16T03:54:15.187Z,15.78
2016-12-16T03:55:25.873Z,15.75
2016-12-16T03:56:37.104Z,15.75
2016-12-16T03:57:47.807Z,15.8
2016-12-16T03:58:58.502Z,15.72
2016-12-16T04:00:09.188Z,15.72
2016-12-16T04:01:19.874Z,15.72
2016-12-16T04:02:30.568Z,15.71
2016-12-16T04:03:41.273Z,15.67
2016-12-16T04:04:51.955Z,15.65
2016-12-16T04:06:02.632Z,15.67
2016-12-16T04:07:13.345Z,15.62
2016-12-16T04:08:24.067Z,15.54
2016-12-16T04:09:34.751Z,15.5
2016-12-16T04:10:45.441Z,15.43
2016-12-16T04:11:56.106Z,15.36
2016-12-16T04:13:06.813Z,15.34
2016-12-16T04:14:17.498Z,15.32
2016-12-16T04:15:28.189Z,15.35
2016-12-16T04:16:38.865Z,15.34
2016-12-16T04:17:49.536Z,15.29
2016-12-16T04:19:00.203Z,15.35
2016-12-16T04:20:10.893Z,15.31
2016-12-16T04:21:21.586Z,15.29
2016-12-16T04:22:32.277Z,15.23
2016-12-16T04:23:42.971Z,15.29
2016-12-16T04:24:53.672Z,15.31
2016-12-16T04:26:04.359Z,15.29
2016-12-16T04:27:15.044Z,15.25
2016-12-16T04:28:25.717Z,15.17
2016-12-16T04:29:36.389Z,15.09
2016-12-16T04:30:47.068Z,15.06
2016-12-16T04:31:58.296Z,15.16
2016-12-16T04:33:09.011Z,15.11
2016-12-16T04:34:19.712Z,15.21
2016-12-16T04:35:30.404Z,15.21
2016-12-16T04:36:41.583Z,15.13
2016-12-16T04:37:52.776Z,15.16
2016-12-16T04:39:03.981Z,15.19
2016-12-16T04:40:14.676Z,15.07
2016-12-16T04:41:25.355Z,15.1
2016-12-16T04:42:36.089Z,15.03
2016-12-16T04:43:46.962Z,15.09
2016-12-16T04:44:58.168Z,15.03
2016-12-16T04:46:08.867Z,15.09
2016-12-16T04:47:19.561Z,15.02
2016-12-16T04:48:30.246Z,14.95
2016-12-16T04:49:40.961Z,14.99
2016-12-16T04:50:51.641Z,15.07
2016-12-16T04:52:02.325Z,15.06
2016-12-16T04:53:13.046Z,15.14
2016-12-16T04:54:23.759Z,15.1
2016-12-16T04:55:34.458Z,15.07
2016-12-16T04:56:45.140Z,15.1
2016-12-16T04:57:55.825Z,15.02
2016-12-16T04:59:06.535Z,14.92
2016-12-16T05:00:17.208Z,14.86
2016-12-16T05:01:27.910Z,14.86
2016-12-16T05:02:38.620Z,14.8
2016-12-16T05:03:49.292Z,14.83
2016-12-16T05:04:59.959Z,14.86
2016-12-16T05:06:10.629Z,14.78
2016-12-16T05:07:21.323Z,14.81
2016-12-16T05:08:31.999Z,14.84
2016-12-16T05:09:42.663Z,14.83
2016-12-16T05:10:53.345Z,14.86
2016-12-16T05:12:04.043Z,14.83
2016-12-16T05:13:14.733Z,14.84
2016-12-16T05:14:25.413Z,14.8
2016-12-16T05:15:36.074Z,14.84
2016-12-16T05:16:46.746Z,14.84
2016-12-16T05:17:57.451Z,14.81
2016-12-16T05:19:08.133Z,14.86
2016-12-16T05:20:19.322Z,14.8
2016-12-16T05:21:29.981Z,14.78
2016-12-16T05:22:40.647Z,14.91
2016-12-16T05:23:51.334Z,14.8
2016-12-16T05:25:02.036Z,14.81
2016-12-16T05:26:12.698Z,14.88
2016-12-16T05:27:23.369Z,14.78
2016-12-16T05:28:34.100Z,14.84
2016-12-16T05:29:44.795Z,14.8
2016-12-16T05:30:55.492Z,14.75
2016-12-16T05:32:06.168Z,14.81
2016-12-16T05:33:16.841Z,14.77
2016-12-16T05:34:27.527Z,14.78
2016-12-16T05:35:38.213Z,14.81
2016-12-16T05:36:48.913Z,14.73
2016-12-16T05:37:59.598Z,14.8
2016-12-16T05:39:10.279Z,14.75
2016-12-16T05:40:20.955Z,14.84
2016-12-16T05:41:31.644Z,14.8
2016-12-16T05:42:42.305Z,14.78
2016-12-16T05:43:52.965Z,14.83
2016-12-16T05:45:03.668Z,14.78
2016-12-16T05:46:14.351Z,14.81
2016-12-16T05:47:25.039Z,14.81
2016-12-16T05:48:35.716Z,14.8
2016-12-16T05:49:46.389Z,14.81
2016-12-16T05:50:57.049Z,14.8
2016-12-16T05:52:07.738Z,14.81
2016-12-16T05:53:18.426Z,14.7
2016-12-16T05:54:29.118Z,14.81
2016-12-16T05:55:39.801Z,14.65
2016-12-16T05:56:50.514Z,14.7
2016-12-16T05:58:01.193Z,14.64
2016-12-16T05:59:11.879Z,14.65
2016-12-16T06:00:22.543Z,14.57
2016-12-16T06:01:33.261Z,14.52
2016-12-16T06:02:43.937Z,14.62
2016-12-16T06:03:54.627Z,14.62
2016-12-16T06:05:05.301Z,14.65
2016-12-16T06:06:15.998Z,14.72
2016-12-16T06:07:26.687Z,14.62
2016-12-16T06:08:37.401Z,14.68
2016-12-16T06:09:48.578Z,14.65
2016-12-16T06:10:59.265Z,14.6
2016-12-16T06:12:09.956Z,14.51
2016-12-16T06:13:20.657Z,14.55
2016-12-16T06:14:31.852Z,14.52
2016-12-16T06:15:42.542Z,14.57
2016-12-16T06:16:53.729Z,14.52
2016-12-16T06:18:04.454Z,14.51
2016-12-16T06:19:15.129Z,14.42
2016-12-16T06:20:25.805Z,14.47
2016-12-16T06:21:36.552Z,14.43
2016-12-16T06:22:47.239Z,14.46
2016-12-16T06:23:57.907Z,14.42
2016-12-16T06:25:08.581Z,14.42
2016-12-16T06:26:19.327Z,14.43
2016-12-16T06:27:29.992Z,14.47
2016-12-16T06:28:40.669Z,14.43
2016-12-16T06:29:51.357Z,14.46
2016-12-16T06:31:02.029Z,14.42
2016-12-16T06:32:12.693Z,14.42
2016-12-16T06:33:23.388Z,14.33
2016-12-16T06:34:34.577Z,14.39
2016-12-16T06:35:45.266Z,14.29
2016-12-16T06:36:55.965Z,14.32
2016-12-16T06:38:06.685Z,14.43
2016-12-16T06:39:17.370Z,14.45
2016-12-16T06:40:28.101Z,14.43
2016-12-16T06:41:38.799Z,14.39
2016-12-16T06:42:49.479Z,14.43
2016-12-16T06:44:00.164Z,14.43
2016-12-16T06:45:10.857Z,14.35
2016-12-16T06:46:21.539Z,14.32
2016-12-16T06:47:32.220Z,14.42
2016-12-16T06:48:42.905Z,14.45
2016-12-16T06:49:53.580Z,14.42
2016-12-16T06:51:04.257Z,14.45
2016-12-16T06:52:14.964Z,14.43
2016-12-16T06:53:25.638Z,14.55
2016-12-16T06:54:36.341Z,14.57
2016-12-16T06:55:47.027Z,14.62
2016-12-16T06:56:57.707Z,14.69
2016-12-16T06:58:08.432Z,14.61
2016-12-16T06:59:19.099Z,14.64
2016-12-16T07:00:29.785Z,14.61
2016-12-16T07:01:40.464Z,14.52
2016-12-16T07:02:51.150Z,14.6
2016-12-16T07:04:01.800Z,14.55
2016-12-16T07:05:12.488Z,14.51
2016-12-16T07:06:23.183Z,14.54
2016-12-16T07:07:33.863Z,14.47
2016-12-16T07:08:44.569Z,14.46
2016-12-16T07:09:55.266Z,14.57
2016-12-16T07:11:05.960Z,14.45
2016-12-16T07:12:16.676Z,14.52
2016-12-16T07:13:27.383Z,14.51
2016-12-16T07:14:38.063Z,14.58
2016-12-16T07:15:48.763Z,14.52
2016-12-16T07:16:59.462Z,14.54
2016-12-16T07:18:10.162Z,14.51
2016-12-16T07:19:20.852Z,14.64
2016-12-16T07:20:31.578Z,14.61
2016-12-16T07:21:42.779Z,14.65
2016-12-16T07:22:53.505Z,14.72
2016-12-16T07:24:04.181Z,14.65
2016-12-16T07:25:14.844Z,14.7
2016-12-16T07:26:25.571Z,14.62
2016-12-16T07:27:36.521Z,14.6
2016-12-16T07:28:47.332Z,14.58
2016-12-16T07:29:58.016Z,14.54
2016-12-16T07:31:08.714Z,14.57
2016-12-16T07:32:19.414Z,14.55
2016-12-16T07:33:30.077Z,14.55
2016-12-16T07:34:40.772Z,14.54
2016-12-16T07:35:51.447Z,14.55
2016-12-16T07:37:02.140Z,14.55
2016-12-16T07:38:12.827Z,14.62
2016-12-16T07:39:23.521Z,14.55
2016-12-16T07:40:34.263Z,14.51
2016-12-16T07:41:45.473Z,14.6
2016-12-16T07:42:56.165Z,14.58
2016-12-16T07:44:06.887Z,14.58
2016-12-16T07:45:17.605Z,14.58
2016-12-16T07:46:28.326Z,14.52
2016-12-16T07:47:39.036Z,14.54
2016-12-16T07:48:49.739Z,14.58
2016-12-16T07:50:00.422Z,14.6
2016-12-16T07:51:11.109Z,14.6
2016-12-16T07:52:21.810Z,14.57
2016-12-16T07:53:32.514Z,14.55
2016-12-16T07:54:43.226Z,14.47
2016-12-16T07:55:53.907Z,14.42
2016-12-16T07:57:04.597Z,14.51
2016-12-16T07:58:15.311Z,14.52
2016-12-16T07:59:26.012Z,14.52
2016-12-16T08:00:36.703Z,14.43
2016-12-16T08:01:47.423Z,14.42
2016-12-16T08:02:58.104Z,14.46
2016-12-16T08:04:08.801Z,14.52
2016-12-16T08:05:19.495Z,14.54
2016-12-16T08:06:30.179Z,14.54
2016-12-16T08:07:40.856Z,14.4
2016-12-16T08:08:51.537Z,14.47
2016-12-16T08:10:02.752Z,14.43
2016-12-16T08:11:13.634Z,14.51
2016-12-16T08:12:24.832Z,14.58
2016-12-16T08:13:35.520Z,14.52
2016-12-16T08:14:46.197Z,14.55
2016-12-16T08:15:56.878Z,14.47
2016-12-16T08:17:07.596Z,14.57
2016-12-16T08:18:18.295Z,14.47
2016-12-16T08:19:28.998Z,14.57
2016-12-16T08:20:39.678Z,14.47
2016-12-16T08:21:50.403Z,14.4
2016-12-16T08:23:01.096Z,14.45
2016-12-16T08:24:11.800Z,14.43
2016-12-16T08:25:22.473Z,14.5
2016-12-16T08:26:33.133Z,14.54
2016-12-16T08:27:43.860Z,14.55
2016-12-16T08:28:54.596Z,14.77
2016-12-16T08:30:05.299Z,14.84
2016-12-16T08:31:15.994Z,14.91
2016-12-16T08:32:26.696Z,14.89
2016-12-16T08:33:37.387Z,15.02
2016-12-16T08:34:48.086Z,15.07
2016-12-16T08:35:58.803Z,15.16
2016-12-16T08:37:09.490Z,15.2
2016-12-16T08:38:20.175Z,15.16
2016-12-16T08:39:30.847Z,15.38
2016-12-16T08:40:41.534Z,15.41
2016-12-16T08:41:52.214Z,15.54
2016-12-16T08:43:02.920Z,15.6
2016-12-16T08:44:13.675Z,15.68
2016-12-16T08:45:24.366Z,15.89
2016-12-16T08:46:35.059Z,15.94
2016-12-16T08:47:45.766Z,16.09
2016-12-16T08:48:56.478Z,16.05
2016-12-16T08:50:07.148Z,16.12
2016-12-16T08:51:17.861Z,16.3
2016-12-16T08:52:28.575Z,16.31
2016-12-16T08:53:39.287Z,16.45
2016-12-16T08:54:50.524Z,16.52
2016-12-16T08:56:01.208Z,16.43
2016-12-16T08:57:11.897Z,16.5
2016-12-16T08:58:22.591Z,16.63
2016-12-16T08:59:33.276Z,16.79
2016-12-16T09:00:43.967Z,16.89
2016-12-16T09:01:54.654Z,16.83
2016-12-16T09:03:05.373Z,16.97
2016-12-16T09:04:16.043Z,16.78
2016-12-16T09:05:26.714Z,16.71
2016-12-16T09:06:37.408Z,16.57
2016-12-16T09:07:48.818Z,16.63
2016-12-16T09:08:59.516Z,16.68
2016-12-16T09:10:10.227Z,16.58
2016-12-16T09:11:20.924Z,16.46
2016-12-16T09:12:31.612Z,16.3
2016-12-16T09:13:42.305Z,16.17
2016-12-16T09:14:53.026Z,16.02
2016-12-16T09:16:03.736Z,16.08
2016-12-16T09:17:14.450Z,16.07
2016-12-16T09:18:25.139Z,16.05
2016-12-16T09:19:35.807Z,16.02
2016-12-16T09:20:46.489Z,15.97
2016-12-16T09:21:57.158Z,16.04
2016-12-16T09:23:07.825Z,15.93
2016-12-16T09:24:18.523Z,16
2016-12-16T09:25:29.211Z,15.92
2016-12-16T09:26:39.943Z,16.02
2016-12-16T09:27:50.668Z,15.96
2016-12-16T09:29:01.369Z,15.93
2016-12-16T09:30:12.772Z,16.05
2016-12-16T09:31:23.452Z,16.39
2016-12-16T09:32:34.151Z,16.83
2016-12-16T09:33:44.878Z,17.19
2016-12-16T09:34:55.627Z,17.23
2016-12-16T09:36:06.333Z,17.25
2016-12-16T09:37:17.019Z,17.44
2016-12-16T09:38:27.723Z,18.02
2016-12-16T09:39:38.417Z,18.12
2016-12-16T09:40:49.100Z,18.15
2016-12-16T09:41:59.775Z,18.33
2016-12-16T09:43:10.491Z,18.42
2016-12-16T09:44:21.171Z,18.37
2016-12-16T09:45:31.890Z,18.1
2016-12-16T09:46:42.596Z,17.82
2016-12-16T09:47:53.280Z,17.82
2016-12-16T09:49:03.958Z,17.63
2016-12-16T09:50:14.673Z,17.55
2016-12-16T09:51:25.336Z,17.44
2016-12-16T09:52:36.036Z,17.33
2016-12-16T09:53:46.744Z,17.31
2016-12-16T09:54:57.415Z,17.3
2016-12-16T09:56:08.108Z,17.16
2016-12-16T09:57:19.506Z,17.19
2016-12-16T09:58:30.739Z,17.18
2016-12-16T09:59:41.455Z,17.07
2016-12-16T10:00:52.157Z,17
2016-12-16T10:02:02.859Z,17.16
2016-12-16T10:03:13.601Z,17.16
2016-12-16T10:04:24.298Z,17.36
2016-12-16T10:05:34.973Z,17.3
2016-12-16T10:06:45.709Z,17.33
2016-12-16T10:07:56.403Z,17.3
2016-12-16T10:09:07.621Z,17.23
2016-12-16T10:10:18.861Z,17.23
2016-12-16T10:11:29.582Z,17.18
2016-12-16T10:12:40.277Z,17.06
2016-12-16T10:13:50.995Z,17.06
2016-12-16T10:15:01.675Z,17
2016-12-16T10:16:12.396Z,17.18
2016-12-16T10:17:23.096Z,17.21
2016-12-16T10:18:33.793Z,17.31
2016-12-16T10:19:44.504Z,17.34
2016-12-16T10:20:55.193Z,17.33
2016-12-16T10:22:05.892Z,17.37
2016-12-16T10:23:16.599Z,17.37
2016-12-16T10:24:27.277Z,17.37
2016-12-16T10:25:37.970Z,17.43
2016-12-16T10:26:49.205Z,17.43
2016-12-16T10:27:59.892Z,17.54
2016-12-16T10:29:10.578Z,17.46
2016-12-16T10:30:21.246Z,17.33
2016-12-16T10:31:31.923Z,17.43
2016-12-16T10:32:42.625Z,17.3
2016-12-16T10:33:53.361Z,17.22
2016-12-16T10:35:04.060Z,17.22
2016-12-16T10:36:14.778Z,17.19
2016-12-16T10:37:25.476Z,17.21
2016-12-16T10:38:36.692Z,17.36
2016-12-16T10:39:47.393Z,17.22
2016-12-16T10:40:58.065Z,17.19
2016-12-16T10:42:08.734Z,17.23
2016-12-16T10:43:19.452Z,17.36
2016-12-16T10:44:30.140Z,17.37
2016-12-16T10:45:40.810Z,17.63
2016-12-16T10:46:51.512Z,17.66
2016-12-16T10:48:02.218Z,17.51
2016-12-16T10:49:12.919Z,17.48
2016-12-16T10:50:23.605Z,17.55
2016-12-16T10:51:34.305Z,17.56
2016-12-16T10:52:45.024Z,17.66
2016-12-16T10:53:55.717Z,17.81
2016-12-16T10:55:06.945Z,17.93
2016-12-16T10:56:18.694Z,18
2016-12-16T10:57:29.921Z,18.03
2016-12-16T10:58:40.619Z,18.11
2016-12-16T10:59:51.320Z,18.18
2016-12-16T11:01:02.009Z,18.14
2016-12-16T11:02:13.241Z,18.11
2016-12-16T11:03:23.949Z,18
2016-12-16T11:04:34.657Z,17.97
2016-12-16T11:05:45.346Z,17.82
2016-12-16T11:06:56.071Z,18
2016-12-16T11:08:07.279Z,18.14
2016-12-16T11:09:18.989Z,18.18
2016-12-16T11:10:29.682Z,18.14
2016-12-16T11:11:40.371Z,18.18
2016-12-16T11:12:51.062Z,18.08
2016-12-16T11:14:01.752Z,18
2016-12-16T11:15:12.464Z,18.11
2016-12-16T11:16:23.174Z,18.15
2016-12-16T11:17:33.882Z,18.26
2016-12-16T11:18:45.266Z,18.45
2016-12-16T11:19:55.971Z,18.48
2016-12-16T11:21:06.660Z,18.48
2016-12-16T11:22:17.380Z,18.51
2016-12-16T11:23:28.063Z,18.7
2016-12-16T11:24:38.767Z,18.65
2016-12-16T11:25:49.448Z,18.82
2016-12-16T11:27:00.123Z,19
2016-12-16T11:28:11.311Z,18.91
2016-12-16T11:29:22.016Z,18.91
2016-12-16T11:30:32.767Z,18.9
2016-12-16T11:31:43.494Z,19.06
2016-12-16T11:32:54.218Z,18.94
2016-12-16T11:34:04.924Z,18.94
2016-12-16T11:35:16.127Z,19.08
2016-12-16T11:36:26.835Z,18.98
2016-12-16T11:37:37.517Z,18.82
2016-12-16T11:38:48.227Z,18.73
2016-12-16T11:39:58.932Z,18.78
2016-12-16T11:41:09.644Z,18.69
2016-12-16T11:42:20.348Z,18.78
2016-12-16T11:43:31.041Z,18.98
2016-12-16T11:44:41.773Z,19.21
2016-12-16T11:45:52.472Z,19.11
2016-12-16T11:47:03.684Z,19.11
2016-12-16T11:48:14.383Z,19.04
2016-12-16T11:49:25.124Z,19.25
2016-12-16T11:50:35.857Z,19.23
2016-12-16T11:51:46.541Z,19.28
2016-12-16T11:52:57.220Z,19.1
2016-12-16T11:54:07.930Z,19.02
2016-12-16T11:55:18.627Z,19.04
2016-12-16T11:56:29.319Z,19.14
2016-12-16T11:57:40.001Z,19.4
2016-12-16T11:58:50.704Z,19.43
2016-12-16T12:00:01.409Z,19.43
2016-12-16T12:01:12.594Z,19.55
2016-12-16T12:02:23.291Z,19.41
2016-12-16T12:03:33.992Z,19.51
2016-12-16T12:04:44.689Z,19.4
2016-12-16T12:05:55.388Z,19.48
2016-12-16T12:07:06.113Z,19.55
2016-12-16T12:08:16.858Z,19.71
2016-12-16T12:09:27.534Z,19.77
2016-12-16T12:10:38.262Z,19.8
2016-12-16T12:11:49.079Z,19.87
2016-12-16T12:12:59.887Z,19.99
2016-12-16T12:14:10.602Z,20.05
2016-12-16T12:15:21.322Z,20.06
2016-12-16T12:16:32.002Z,19.98
2016-12-16T12:17:42.701Z,19.77
2016-12-16T12:18:53.450Z,19.54
2016-12-16T12:20:04.163Z,19.51
2016-12-16T12:21:14.965Z,19.58
2016-12-16T12:22:25.782Z,19.46
2016-12-16T12:23:36.483Z,19.58
2016-12-16T12:24:47.174Z,19.61
2016-12-16T12:25:57.885Z,19.47
2016-12-16T12:27:08.844Z,19.43
2016-12-16T12:28:19.529Z,19.51
2016-12-16T12:29:30.240Z,19.74
2016-12-16T12:30:40.972Z,19.66
2016-12-16T12:31:51.670Z,19.74
2016-12-16T12:33:02.399Z,19.95
2016-12-16T12:34:13.095Z,20.13
2016-12-16T12:35:24.318Z,20.13
2016-12-16T12:36:35.034Z,20.16
2016-12-16T12:37:45.718Z,20.39
2016-12-16T12:38:56.455Z,20.38
2016-12-16T12:40:07.140Z,20.21
2016-12-16T12:41:17.848Z,20.31
2016-12-16T12:42:28.556Z,20.33
2016-12-16T12:43:39.247Z,20.67
2016-12-16T12:44:49.954Z,20.95
2016-12-16T12:46:00.641Z,21.06
2016-12-16T12:47:11.349Z,21.06
2016-12-16T12:48:22.077Z,20.72
2016-12-16T12:49:32.768Z,20.54
2016-12-16T12:50:43.487Z,20.5
2016-12-16T12:51:54.197Z,20.41
2016-12-16T12:53:04.897Z,20.24
2016-12-16T12:54:16.102Z,20.28
2016-12-16T12:55:26.782Z,20.43
2016-12-16T12:56:37.492Z,20.77
2016-12-16T12:57:48.207Z,20.88
2016-12-16T12:58:58.933Z,21.01
2016-12-16T13:00:09.626Z,21.16
2016-12-16T13:01:20.320Z,21.29
2016-12-16T13:02:31.019Z,21.42
2016-12-16T13:03:41.724Z,21.44
2016-12-16T13:04:52.428Z,21.12
2016-12-16T13:06:03.138Z,21.1
2016-12-16T13:07:13.852Z,21.1
2016-12-16T13:08:24.555Z,21.24
2016-12-16T13:09:35.260Z,21.47
2016-12-16T13:10:45.998Z,21.56
2016-12-16T13:11:56.695Z,21.53
2016-12-16T13:13:07.405Z,21.46
2016-12-16T13:14:18.103Z,21.4
2016-12-16T13:15:28.821Z,21.27
2016-12-16T13:16:39.539Z,21.35
2016-12-16T13:17:50.247Z,21.54
2016-12-16T13:19:00.948Z,21.49
2016-12-16T13:20:11.651Z,21.46
2016-12-16T13:21:22.354Z,21.37
2016-12-16T13:22:33.057Z,21.53
2016-12-16T13:23:43.776Z,21.54
2016-12-16T13:24:54.495Z,21.77
2016-12-16T13:26:05.210Z,21.54
2016-12-16T13:27:15.891Z,21.47
2016-12-16T13:28:26.564Z,21.38
2016-12-16T13:29:37.270Z,21.19
2016-12-16T13:30:47.966Z,21.01
2016-12-16T13:31:58.658Z,20.95
2016-12-16T13:33:09.367Z,20.79
2016-12-16T13:34:20.115Z,20.74
2016-12-16T13:35:31.327Z,20.7
2016-12-16T13:36:42.003Z,20.92
2016-12-16T13:37:52.685Z,20.97
2016-12-16T13:39:03.385Z,21.13
2016-12-16T13:40:14.566Z,21.13
2016-12-16T13:41:25.282Z,21.01
2016-12-16T13:42:35.960Z,21.12
2016-12-16T13:43:47.181Z,21.21
2016-12-16T13:44:57.893Z,21.09
2016-12-16T13:46:08.630Z,20.89
2016-12-16T13:47:19.321Z,20.87
2016-12-16T13:48:30.017Z,20.91
2016-12-16T13:49:41.209Z,20.85
2016-12-16T13:50:52.402Z,21.16
2016-12-16T13:52:03.092Z,21.38
2016-12-16T13:53:13.806Z,21.53
2016-12-16T13:54:25.036Z,21.61
2016-12-16T13:55:35.747Z,21.68
2016-12-16T13:56:46.428Z,21.91
2016-12-16T13:57:57.125Z,21.67
2016-12-16T13:59:07.886Z,21.67
2016-12-16T14:00:18.585Z,21.49
2016-12-16T14:01:29.293Z,21.43
2016-12-16T14:02:40.516Z,21.58
2016-12-16T14:03:52.130Z,21.53
2016-12-16T14:05:03.340Z,21.74
2016-12-16T14:06:14.065Z,21.77
2016-12-16T14:07:24.765Z,21.77
2016-12-16T14:08:35.459Z,21.9
2016-12-16T14:09:46.154Z,21.91
2016-12-16T14:10:56.818Z,21.67
2016-12-16T14:12:07.542Z,21.67
2016-12-16T14:13:18.239Z,21.94
2016-12-16T14:14:28.959Z,22.2
2016-12-16T14:15:39.641Z,21.98
2016-12-16T14:16:50.314Z,21.84
2016-12-16T14:18:01.031Z,21.71
2016-12-16T14:19:11.740Z,21.99
2016-12-16T14:20:22.438Z,22.37
2016-12-16T14:21:33.164Z,22.8
2016-12-16T14:22:43.862Z,22.86
2016-12-16T14:23:54.585Z,23
2016-12-16T14:25:05.813Z,23.09
2016-12-16T14:26:17.035Z,22.7
2016-12-16T14:27:27.743Z,22.51
2016-12-16T14:28:38.451Z,22.83
2016-12-16T14:29:49.192Z,22.76
2016-12-16T14:31:00.395Z,22.57
2016-12-16T14:32:11.108Z,22.72
2016-12-16T14:33:21.816Z,22.79
2016-12-16T14:34:32.517Z,22.75
2016-12-16T14:35:43.722Z,22.98
2016-12-16T14:36:54.422Z,23.02
2016-12-16T14:38:05.637Z,22.82
2016-12-16T14:39:16.321Z,22.47
2016-12-16T14:40:27.026Z,22.22
2016-12-16T14:41:38.295Z,22.09
2016-12-16T14:42:49.039Z,22.09
2016-12-16T14:44:00.288Z,22.51
2016-12-16T14:45:10.980Z,22.82
2016-12-16T14:46:21.681Z,22.86
2016-12-16T14:47:32.387Z,22.85
2016-12-16T14:48:43.069Z,23.07
2016-12-16T14:49:53.798Z,23.23
2016-12-16T14:51:05.006Z,23.04
2016-12-16T14:52:15.701Z,22.88
2016-12-16T14:53:26.390Z,22.8
2016-12-16T14:54:37.079Z,22.75
2016-12-16T14:55:47.783Z,22.86
2016-12-16T14:56:58.492Z,22.73
2016-12-16T14:58:09.165Z,22.57
2016-12-16T14:59:20.393Z,22.33
2016-12-16T15:00:31.063Z,22.21
2016-12-16T15:01:41.808Z,22.43
2016-12-16T15:02:52.522Z,22.75
2016-12-16T15:04:03.244Z,22.67
2016-12-16T15:05:13.948Z,22.8
2016-12-16T15:06:24.629Z,22.97
2016-12-16T15:07:35.348Z,23.2
2016-12-16T15:08:46.092Z,23.61
2016-12-16T15:09:56.807Z,23.94
2016-12-16T15:11:07.553Z,24.32
2016-12-16T15:12:18.256Z,24.37
2016-12-16T15:13:28.988Z,23.97
2016-12-16T15:14:39.686Z,23.78